createdAt,value
2023-06-16T00:04:29.769Z,11.83
2023-06-16T00:14:31.835Z,11.73
2023-06-16T00:24:35.948Z,11.47
2023-06-16T00:34:37.849Z,11.52
2023-06-16T00:44:40.803Z,11.42
2023-06-16T00:54:44.114Z,11.13
2023-06-16T01:04:48.891Z,11.21
2023-06-16T01:15:05.870Z,11.14
2023-06-16T01:25:11.847Z,11.11
2023-06-16T01:35:17.600Z,10.99
2023-06-16T01:45:22.110Z,10.90
2023-06-16T01:55:24.150Z,10.58
2023-06-16T02:05:48.808Z,10.83
2023-06-16T02:15:52.238Z,10.68
2023-06-16T02:25:59.334Z,10.79
2023-06-16T02:36:02.240Z,10.62
2023-06-16T02:46:07.994Z,10.74
2023-06-16T02:56:09.894Z,10.79
2023-06-16T03:06:11.976Z,11.22
2023-06-16T03:16:14.039Z,11.65
2023-06-16T03:26:16.990Z,12.33
2023-06-16T03:36:19.590Z,13.17
2023-06-16T03:46:21.534Z,13.96
2023-06-16T03:56:23.552Z,14.46
2023-06-16T04:06:25.768Z,15.29
2023-06-16T04:16:27.859Z,16.35
2023-06-16T04:26:33.993Z,16.91
2023-06-16T04:36:36.104Z,17.53
2023-06-16T04:46:39.788Z,17.95
2023-06-16T04:56:41.793Z,18.70
2023-06-16T05:06:43.979Z,19.99
2023-06-16T05:16:45.996Z,19.78
2023-06-16T05:26:48.124Z,20.13
2023-06-16T05:36:50.247Z,20.57
2023-06-16T05:46:52.240Z,20.87
2023-06-16T05:56:55.353Z,20.86
2023-06-16T06:06:57.613Z,20.96
2023-06-16T06:16:59.905Z,21.76
2023-06-16T06:27:02.135Z,21.81
2023-06-16T06:37:17.692Z,22.52
2023-06-16T06:47:19.828Z,23.48
2023-06-16T06:57:21.989Z,23.30
2023-06-16T07:07:24.244Z,23.26
2023-06-16T07:17:29.292Z,23.48
2023-06-16T07:27:31.388Z,23.02
2023-06-16T07:37:34.028Z,22.67
2023-06-16T07:47:37.325Z,22.73
2023-06-16T07:57:40.833Z,22.39
2023-06-16T08:07:42.783Z,24.14
2023-06-16T08:17:45.191Z,23.89
2023-06-16T08:27:47.359Z,23.34
2023-06-16T08:37:51.787Z,23.93
2023-06-16T08:47:54.946Z,23.71
2023-06-16T08:57:59.657Z,23.24
2023-06-16T09:08:05.829Z,23.01
2023-06-16T09:18:09.337Z,22.06
2023-06-16T09:28:21.544Z,23.15
2023-06-16T09:38:24.343Z,23.08
2023-06-16T09:48:28.554Z,23.54
2023-06-16T09:58:41.639Z,23.93
2023-06-16T10:08:47.506Z,23.86
2023-06-16T10:18:58.564Z,24.66
2023-06-16T10:29:04.648Z,24.15
2023-06-16T10:39:15.041Z,23.56
2023-06-16T10:49:21.980Z,23.52
2023-06-16T10:59:25.215Z,23.31
2023-06-16T11:09:31.283Z,23.55
2023-06-16T11:19:39.472Z,22.78
2023-06-16T11:29:41.504Z,23.10
2023-06-16T11:39:51.735Z,23.01
2023-06-16T11:49:53.722Z,22.69
2023-06-16T11:59:56.875Z,23.20
2023-06-16T12:10:06.891Z,22.99
2023-06-16T12:20:13.861Z,23.40
2023-06-16T12:30:16.618Z,23.31
2023-06-16T12:40:29.395Z,23.41
2023-06-16T12:50:31.608Z,23.67
2023-06-16T13:00:35.114Z,24.19
2023-06-16T13:10:38.140Z,24.11
2023-06-16T13:20:40.479Z,23.88
2023-06-16T13:30:42.992Z,23.60
2023-06-16T13:40:47.102Z,24.27
2023-06-16T13:50:51.345Z,24.14
2023-06-16T14:00:55.494Z,24.20
2023-06-16T14:10:57.569Z,24.50
2023-06-16T14:21:00.620Z,24.27
2023-06-16T14:31:02.791Z,24.03
2023-06-16T14:41:04.860Z,23.76
2023-06-16T14:51:06.856Z,23.60
2023-06-16T15:01:09.970Z,23.42
2023-06-16T15:11:13.450Z,23.04
2023-06-16T15:21:15.617Z,22.94
2023-06-16T15:31:18.844Z,22.73
2023-06-16T15:41:20.877Z,22.62
2023-06-16T15:51:22.969Z,22.56
2023-06-16T16:01:27.249Z,22.49
2023-06-16T16:11:29.313Z,22.41
2023-06-16T16:21:31.664Z,22.30
2023-06-16T16:31:34.689Z,22.20
2023-06-16T16:41:36.947Z,22.11
2023-06-16T16:51:38.998Z,22.08
2023-06-16T17:01:42.163Z,22.06
2023-06-16T17:11:44.483Z,21.99
2023-06-16T17:21:48.543Z,21.92
2023-06-16T17:31:50.858Z,21.82
2023-06-16T17:41:54.943Z,21.47
2023-06-16T17:52:02.038Z,21.30
2023-06-16T18:02:04.328Z,20.98
2023-06-16T18:12:13.376Z,20.77
2023-06-16T18:22:16.544Z,20.44
2023-06-16T18:32:20.531Z,20.57
2023-06-16T18:42:23.913Z,20.51
2023-06-16T18:52:26.955Z,20.35
2023-06-16T19:02:29.300Z,20.14
2023-06-16T19:12:33.987Z,20.06
2023-06-16T19:22:38.028Z,20.01
2023-06-16T19:32:41.931Z,19.84
2023-06-16T19:42:44.070Z,19.78
2023-06-16T19:52:47.167Z,19.68
2023-06-16T20:02:50.424Z,19.67
2023-06-16T20:12:52.708Z,19.40
2023-06-16T20:22:54.732Z,19.34
2023-06-16T20:33:00.326Z,19.21
2023-06-16T20:43:04.845Z,19.14
2023-06-16T20:53:14.791Z,18.94
2023-06-16T21:03:23.342Z,18.93
2023-06-16T21:13:27.068Z,18.87
2023-06-16T21:23:31.306Z,18.59
2023-06-16T21:33:38.394Z,18.44
2023-06-16T21:43:44.366Z,17.85
2023-06-16T21:53:52.472Z,17.49
2023-06-16T22:03:54.437Z,17.35
2023-06-16T22:14:10.452Z,17.12
2023-06-16T22:24:12.882Z,16.96
2023-06-16T22:34:16.897Z,16.93
2023-06-16T22:44:21.515Z,16.84
2023-06-16T22:54:26.763Z,16.68
2023-06-16T23:04:29.832Z,16.64
2023-06-16T23:14:47.968Z,16.64
2023-06-16T23:24:49.864Z,16.62
2023-06-16T23:34:54.658Z,16.52
2023-06-16T23:45:21.437Z,16.42
2023-06-16T23:55:23.356Z,16.30
